createdAt,value
2019-02-20T00:00:46.398Z,-0.10
2019-02-20T00:03:13.741Z,-0.10
2019-02-20T00:05:41.315Z,-0.10
2019-02-20T00:08:08.906Z,-0.10
2019-02-20T00:10:36.128Z,0.00
2019-02-20T00:13:03.388Z,-0.10
2019-02-20T00:15:30.731Z,-0.20
2019-02-20T00:17:58.387Z,-0.20
2019-02-20T00:20:25.555Z,-0.40
2019-02-20T00:22:52.703Z,-0.40
2019-02-20T00:25:20.247Z,-0.40
2019-02-20T00:27:47.803Z,-0.30
2019-02-20T00:30:15.034Z,-0.30
2019-02-20T00:32:42.397Z,-0.40
2019-02-20T00:35:09.980Z,-0.50
2019-02-20T00:37:37.240Z,-0.50
2019-02-20T00:40:04.661Z,-0.50
2019-02-20T00:42:32.035Z,-0.50
2019-02-20T00:45:30.577Z,-0.60
2019-02-20T00:48:07.763Z,-0.70
2019-02-20T00:50:36.126Z,-0.80
2019-02-20T00:53:10.888Z,-0.90
2019-02-20T00:55:38.102Z,-0.80
2019-02-20T00:58:05.357Z,-0.70
2019-02-20T01:00:32.676Z,-0.60
2019-02-20T01:02:59.915Z,-0.70
2019-02-20T01:05:27.141Z,-0.80
2019-02-20T01:07:54.423Z,-0.70
2019-02-20T01:10:21.988Z,-0.70
2019-02-20T01:12:49.237Z,-0.70
2019-02-20T01:15:16.788Z,-0.70
2019-02-20T01:17:44.717Z,-0.70
2019-02-20T01:20:12.049Z,-0.80
2019-02-20T01:22:39.304Z,-0.80
2019-02-20T01:25:06.743Z,-0.70
2019-02-20T01:27:34.404Z,-0.80
2019-02-20T01:30:01.633Z,-1.00
2019-02-20T01:32:28.944Z,-1.00
2019-02-20T01:34:56.159Z,-0.90
2019-02-20T01:37:23.385Z,-0.80
2019-02-20T01:39:50.614Z,-0.70
2019-02-20T01:42:17.852Z,-0.80
2019-02-20T01:44:45.085Z,-0.90
2019-02-20T01:47:12.308Z,-1.00
2019-02-20T01:49:39.968Z,-1.10
2019-02-20T01:52:07.267Z,-1.20
2019-02-20T01:54:34.493Z,-1.10
2019-02-20T01:57:02.029Z,-1.10
2019-02-20T01:59:29.336Z,-1.00
2019-02-20T02:01:56.564Z,-1.00
2019-02-20T02:04:23.835Z,-1.00
2019-02-20T02:06:51.109Z,-1.00
2019-02-20T02:09:18.784Z,-1.20
2019-02-20T02:11:46.015Z,-1.10
2019-02-20T02:14:13.262Z,-1.00
2019-02-20T04:08:26.200Z,-1.40
2019-02-20T04:10:53.470Z,-1.30
2019-02-20T04:13:20.824Z,-1.40
2019-02-20T04:15:48.053Z,-1.50
2019-02-20T04:18:15.323Z,-1.60
2019-02-20T04:20:42.663Z,-1.60
2019-02-20T04:23:09.915Z,-1.60
2019-02-20T04:25:37.135Z,-1.60
2019-02-20T04:28:04.393Z,-1.50
2019-02-20T04:30:31.626Z,-1.50
2019-02-20T04:32:58.874Z,-1.40
2019-02-20T04:35:26.095Z,-1.60
2019-02-20T04:37:53.319Z,-1.50
2019-02-20T04:40:20.551Z,-1.60
2019-02-20T04:42:48.163Z,-1.50
2019-02-20T04:45:15.409Z,-1.50
2019-02-20T04:47:42.976Z,-1.60
2019-02-20T04:50:10.217Z,-1.70
2019-02-20T04:52:37.447Z,-1.80
2019-02-20T04:55:04.760Z,-1.90
2019-02-20T04:57:32.004Z,-1.90
2019-02-20T04:59:59.236Z,-1.80
2019-02-20T05:02:26.457Z,-1.80
2019-02-20T05:04:54.043Z,-1.80
2019-02-20T05:07:21.326Z,-1.80
2019-02-20T05:09:48.981Z,-1.90
2019-02-20T05:12:16.218Z,-1.90
2019-02-20T05:14:43.463Z,-2.00
2019-02-20T05:17:10.798Z,-1.90
2019-02-20T05:19:38.784Z,-1.90
2019-02-20T05:22:06.345Z,-1.90
2019-02-20T05:24:33.597Z,-1.90
2019-02-20T05:27:00.819Z,-1.90
2019-02-20T05:29:28.207Z,-2.00
2019-02-20T05:31:55.596Z,-2.00
2019-02-20T05:34:22.882Z,-2.00
2019-02-20T05:36:50.109Z,-1.90
2019-02-20T05:39:17.362Z,-1.90
2019-02-20T05:41:44.591Z,-2.00
2019-02-20T05:44:12.149Z,-2.00
2019-02-20T05:46:39.390Z,-1.90
2019-02-20T05:49:06.640Z,-1.90
2019-02-20T05:51:34.005Z,-1.90
2019-02-20T05:54:01.274Z,-1.80
2019-02-20T05:56:28.593Z,-1.80
2019-02-20T05:58:56.169Z,-1.70
2019-02-20T06:01:24.104Z,-1.70
2019-02-20T06:03:51.688Z,-1.60
2019-02-20T06:06:18.944Z,-1.50
2019-02-20T06:08:47.809Z,-1.60
2019-02-20T06:11:15.655Z,-1.60
2019-02-20T06:13:43.121Z,-1.60
2019-02-20T06:16:10.361Z,-1.60
2019-02-20T06:18:37.989Z,-1.60
2019-02-20T06:21:05.229Z,-1.60
2019-02-20T06:23:32.455Z,-1.50
2019-02-20T06:25:59.703Z,-1.50
2019-02-20T06:28:27.580Z,-1.40
2019-02-20T06:30:55.236Z,-1.30
2019-02-20T06:33:22.665Z,-1.30
2019-02-20T06:35:49.897Z,-1.20
2019-02-20T06:38:17.164Z,-1.00
2019-02-20T06:40:44.413Z,-1.00
2019-02-20T06:43:11.641Z,-0.90
2019-02-20T06:45:39.282Z,-0.90
2019-02-20T06:48:06.538Z,-1.00
2019-02-20T06:50:34.061Z,-1.00
2019-02-20T06:53:01.297Z,-1.00
2019-02-20T06:55:28.547Z,-0.90
2019-02-20T06:57:55.857Z,-0.90
2019-02-20T07:00:23.500Z,-0.80
2019-02-20T07:02:50.764Z,-0.70
2019-02-20T07:05:35.476Z,-0.50
2019-02-20T07:08:21.293Z,-0.40
2019-02-20T07:11:11.595Z,-0.40
2019-02-20T07:13:53.865Z,-0.60
2019-02-20T07:17:06.662Z,-0.40
2019-02-20T07:20:03.044Z,-0.30
2019-02-20T07:23:00.476Z,-0.10
2019-02-20T07:26:03.601Z,-0.10
2019-02-20T07:28:56.824Z,-0.10
2019-02-20T07:31:24.808Z,0.20
2019-02-20T07:33:52.396Z,0.30
2019-02-20T07:38:54.929Z,0.30
2019-02-20T07:41:22.151Z,0.40
2019-02-20T07:43:49.388Z,0.60
2019-02-20T07:46:16.920Z,0.70
2019-02-20T07:48:44.140Z,0.60
2019-02-20T07:51:11.456Z,0.70
2019-02-20T07:53:38.620Z,0.70
2019-02-20T07:56:06.244Z,0.60
2019-02-20T07:58:33.524Z,0.80
2019-02-20T08:01:00.844Z,0.90
2019-02-20T08:03:30.165Z,1.10
2019-02-20T08:05:57.401Z,1.10
2019-02-20T08:08:24.831Z,1.20
2019-02-20T08:10:52.128Z,1.40
2019-02-20T08:13:19.641Z,1.50
2019-02-20T08:15:46.969Z,1.90
2019-02-20T08:18:14.221Z,2.40
2019-02-20T08:20:41.802Z,2.70
2019-02-20T08:23:09.460Z,2.70
2019-02-20T08:25:36.680Z,2.80
2019-02-20T08:28:04.172Z,2.80
2019-02-20T08:30:31.512Z,2.70
2019-02-20T08:32:58.820Z,2.40
2019-02-20T08:35:25.945Z,2.30
2019-02-20T08:37:53.505Z,2.40
2019-02-20T08:40:21.063Z,2.60
2019-02-20T08:42:48.333Z,2.40
2019-02-20T08:45:15.644Z,2.30
2019-02-20T08:47:43.143Z,2.20
2019-02-20T08:50:10.925Z,2.20
2019-02-20T08:52:38.155Z,2.30
2019-02-20T08:55:05.494Z,2.40
2019-02-20T08:57:32.720Z,2.60
2019-02-20T08:59:59.974Z,2.80
2019-02-20T09:02:27.534Z,2.60
2019-02-20T09:04:54.924Z,2.90
2019-02-20T09:07:22.211Z,2.90
2019-02-20T09:09:49.468Z,3.20
2019-02-20T09:12:17.051Z,3.20
2019-02-20T09:14:44.304Z,3.80
2019-02-20T09:17:37.633Z,4.40
2019-02-20T09:20:05.701Z,4.50
2019-02-20T09:22:32.952Z,4.60
2019-02-20T09:25:00.552Z,5.00
2019-02-20T09:27:28.087Z,5.90
2019-02-20T09:29:55.322Z,6.50
2019-02-20T09:32:25.761Z,6.60
2019-02-20T09:34:53.260Z,6.40
2019-02-20T09:37:20.564Z,5.80
2019-02-20T09:39:47.785Z,5.60
2019-02-20T09:42:16.831Z,5.90
2019-02-20T09:44:46.351Z,6.00
2019-02-20T09:47:14.217Z,6.30
2019-02-20T09:49:41.459Z,7.00
2019-02-20T09:52:08.742Z,7.80
2019-02-20T09:54:35.997Z,8.30
2019-02-20T09:57:03.215Z,8.60
2019-02-20T09:59:30.435Z,9.20
2019-02-20T10:01:57.659Z,9.60
2019-02-20T10:04:25.040Z,9.60
2019-02-20T10:06:52.640Z,10.50
2019-02-20T10:09:19.860Z,10.60
2019-02-20T10:11:47.084Z,10.70
2019-02-20T10:14:14.368Z,10.90
2019-02-20T10:16:41.613Z,11.00
2019-02-20T10:19:08.827Z,10.90
2019-02-20T10:21:36.050Z,11.30
2019-02-20T10:24:03.477Z,11.30
2019-02-20T10:26:31.059Z,11.50
2019-02-20T10:28:58.779Z,12.10
2019-02-20T10:31:36.021Z,12.40
2019-02-20T10:34:03.270Z,12.40
2019-02-20T10:36:33.903Z,12.10
2019-02-20T10:39:01.455Z,11.50
2019-02-20T10:41:28.755Z,11.30
2019-02-20T10:43:58.510Z,11.10
2019-02-20T10:46:28.828Z,11.10
2019-02-20T10:48:56.400Z,11.20
2019-02-20T10:51:23.956Z,11.40
2019-02-20T10:53:55.408Z,11.90
2019-02-20T10:56:22.534Z,12.00
2019-02-20T10:58:49.848Z,12.90
2019-02-20T11:01:17.121Z,15.70
2019-02-20T11:03:44.340Z,16.60
2019-02-20T11:06:20.521Z,17.10
2019-02-20T11:08:51.070Z,17.50
2019-02-20T11:11:18.694Z,17.40
2019-02-20T11:13:46.328Z,16.60
2019-02-20T11:16:13.656Z,16.40
2019-02-20T11:18:40.881Z,16.30
2019-02-20T11:21:08.101Z,15.20
2019-02-20T11:23:35.944Z,15.30
2019-02-20T11:26:04.832Z,15.50
2019-02-20T11:28:33.012Z,15.40
2019-02-20T11:31:00.232Z,15.80
2019-02-20T11:33:27.461Z,15.90
2019-02-20T11:35:54.681Z,15.80
2019-02-20T11:38:21.917Z,16.00
2019-02-20T11:40:49.132Z,15.60
2019-02-20T11:43:16.376Z,15.60
2019-02-20T11:45:43.871Z,15.80
2019-02-20T11:48:11.095Z,15.80
2019-02-20T11:50:38.464Z,15.70
2019-02-20T11:53:05.692Z,15.40
2019-02-20T11:55:32.932Z,15.60
2019-02-20T11:58:00.969Z,15.90
2019-02-20T12:00:28.500Z,16.10
2019-02-20T12:02:55.725Z,16.20
2019-02-20T12:05:22.980Z,16.00
2019-02-20T12:07:50.221Z,17.00
2019-02-20T12:10:17.741Z,17.70
2019-02-20T12:12:45.383Z,18.20
2019-02-20T12:15:12.729Z,18.50
2019-02-20T12:17:40.323Z,18.30
2019-02-20T12:20:07.647Z,18.60
2019-02-20T12:22:34.880Z,18.50
2019-02-20T12:25:02.233Z,18.50
2019-02-20T12:27:29.590Z,18.50
2019-02-20T12:29:57.272Z,18.20
2019-02-20T12:32:24.517Z,18.10
2019-02-20T12:34:51.738Z,17.70
2019-02-20T12:37:18.988Z,17.30
2019-02-20T12:39:46.215Z,16.50
2019-02-20T12:42:13.768Z,16.60
2019-02-20T12:44:41.321Z,16.40
2019-02-20T12:47:08.680Z,16.50
2019-02-20T12:49:36.624Z,16.30
2019-02-20T12:52:04.324Z,16.60
2019-02-20T12:54:31.636Z,16.70
2019-02-20T12:56:59.198Z,16.10
2019-02-20T12:59:28.379Z,15.70
2019-02-20T13:01:55.685Z,15.50
2019-02-20T13:04:24.573Z,15.20
2019-02-20T13:06:59.293Z,15.10
2019-02-20T13:09:22.009Z,15.10
2019-02-20T13:11:49.573Z,15.50
2019-02-20T13:14:16.800Z,15.60
2019-02-20T13:16:44.484Z,15.30
2019-02-20T13:19:11.700Z,15.30
2019-02-20T13:21:39.492Z,15.60
2019-02-20T13:24:06.724Z,15.90
2019-02-20T13:26:33.984Z,15.40
2019-02-20T13:29:01.220Z,15.70
2019-02-20T13:31:28.563Z,16.30
2019-02-20T13:33:56.082Z,16.20
2019-02-20T13:36:23.929Z,15.70
2019-02-20T13:38:51.161Z,15.50
2019-02-20T13:41:18.499Z,15.10
2019-02-20T13:43:45.855Z,14.80
2019-02-20T13:46:13.238Z,14.70
2019-02-20T13:48:40.568Z,14.70
2019-02-20T13:51:08.667Z,14.60
2019-02-20T13:53:36.334Z,14.70
2019-02-20T13:56:03.701Z,14.60
2019-02-20T13:58:31.103Z,14.20
2019-02-20T14:00:58.368Z,13.50
2019-02-20T14:03:25.953Z,13.10
2019-02-20T14:05:53.628Z,12.90
2019-02-20T14:08:20.944Z,12.80
2019-02-20T14:10:48.624Z,12.70
2019-02-20T14:13:15.850Z,12.70
2019-02-20T14:15:45.190Z,12.50
2019-02-20T14:18:12.732Z,12.50
2019-02-20T14:20:40.133Z,12.30
2019-02-20T14:23:07.444Z,12.20
2019-02-20T14:25:36.448Z,12.10
2019-02-20T14:28:03.863Z,12.00
2019-02-20T14:30:31.172Z,11.90
2019-02-20T14:32:58.976Z,11.90
2019-02-20T14:35:26.581Z,11.90
2019-02-20T14:37:54.235Z,11.80
2019-02-20T14:40:21.648Z,11.60
2019-02-20T14:42:48.989Z,11.50
2019-02-20T14:45:16.451Z,11.60
2019-02-20T14:47:43.785Z,11.50
2019-02-20T14:50:11.721Z,11.30
2019-02-20T14:52:39.589Z,11.20
2019-02-20T14:55:07.244Z,11.10
2019-02-20T14:57:37.734Z,11.10
2019-02-20T15:00:05.508Z,11.10
2019-02-20T15:02:32.859Z,11.10
2019-02-20T15:05:00.215Z,11.00
2019-02-20T15:07:27.529Z,11.00
2019-02-20T15:09:55.368Z,11.10
2019-02-20T15:12:22.718Z,11.20
2019-02-20T15:14:50.394Z,11.40
2019-02-20T15:17:17.751Z,11.40
2019-02-20T15:19:45.029Z,11.40
2019-02-20T15:22:12.933Z,11.30
2019-02-20T15:24:43.203Z,11.40
2019-02-20T15:27:10.743Z,11.20
2019-02-20T15:29:38.068Z,11.10
2019-02-20T15:32:05.417Z,11.10
2019-02-20T15:34:32.832Z,11.00
2019-02-20T15:37:00.480Z,10.80
2019-02-20T15:39:27.801Z,10.90
2019-02-20T15:41:55.064Z,10.90
2019-02-20T15:44:25.596Z,11.00
2019-02-20T15:46:53.255Z,10.90
2019-02-20T15:49:20.931Z,10.80
2019-02-20T15:51:48.586Z,10.90
2019-02-20T15:54:16.504Z,10.80
2019-02-20T15:56:44.111Z,10.80
2019-02-20T15:59:11.768Z,10.70
2019-02-20T16:01:39.139Z,10.80
2019-02-20T16:04:06.664Z,10.80
2019-02-20T16:06:34.344Z,10.70
2019-02-20T16:09:01.671Z,10.60
2019-02-20T16:11:29.040Z,10.60
2019-02-20T16:13:56.265Z,10.60
2019-02-20T16:16:23.755Z,10.50
2019-02-20T16:18:51.173Z,10.40
2019-02-20T16:21:18.799Z,10.30
2019-02-20T16:23:48.195Z,10.30
2019-02-20T16:26:15.513Z,10.30
2019-02-20T16:28:42.880Z,10.20
2019-02-20T16:31:10.099Z,10.10
2019-02-20T16:33:37.452Z,10.10
2019-02-20T16:36:04.788Z,10.10
2019-02-20T16:38:32.132Z,9.90
2019-02-20T16:40:59.757Z,9.70
2019-02-20T16:43:27.104Z,9.60
2019-02-20T16:45:54.325Z,9.40
2019-02-20T16:48:21.581Z,9.30
2019-02-20T16:50:48.799Z,9.20
2019-02-20T16:53:16.058Z,9.10
2019-02-20T16:55:43.675Z,8.80
2019-02-20T16:58:11.040Z,8.70
2019-02-20T17:00:38.663Z,8.70
2019-02-20T17:03:06.013Z,8.80
2019-02-20T17:05:33.234Z,8.70
2019-02-20T17:08:00.959Z,8.80
2019-02-20T17:10:28.280Z,8.70
2019-02-20T17:12:55.874Z,8.80
2019-02-20T17:15:23.187Z,8.60
2019-02-20T17:17:53.009Z,8.30
2019-02-20T17:20:20.488Z,8.00
2019-02-20T17:22:48.156Z,7.80
2019-02-20T17:25:15.897Z,7.70
2019-02-20T17:27:43.276Z,7.50
2019-02-20T17:30:11.673Z,7.40
2019-02-20T17:32:39.001Z,7.40
2019-02-20T17:35:07.765Z,7.30
2019-02-20T17:37:35.087Z,7.30
2019-02-20T17:40:02.546Z,7.30
2019-02-20T17:42:30.168Z,7.30
2019-02-20T17:44:58.038Z,7.40
2019-02-20T17:47:25.354Z,7.40
2019-02-20T17:49:52.968Z,7.50
2019-02-20T17:52:20.522Z,7.60
2019-02-20T17:54:48.733Z,7.40
2019-02-20T17:57:17.173Z,7.40
2019-02-20T17:59:45.198Z,7.40
2019-02-20T18:02:12.544Z,7.50
2019-02-20T18:04:39.836Z,7.30
2019-02-20T18:07:07.521Z,7.20
2019-02-20T18:09:35.496Z,7.00
2019-02-20T18:12:02.905Z,6.80
2019-02-20T18:14:30.398Z,6.60
2019-02-20T18:16:58.050Z,6.40
2019-02-20T18:19:25.804Z,6.30
2019-02-20T18:21:53.026Z,6.10
2019-02-20T18:24:20.293Z,6.00
2019-02-20T18:26:47.609Z,5.90
2019-02-20T18:29:15.155Z,5.90
2019-02-20T18:31:42.692Z,5.80
2019-02-20T18:34:10.341Z,5.70
2019-02-20T18:36:37.697Z,5.60
2019-02-20T18:39:06.125Z,5.60
2019-02-20T18:41:33.492Z,5.40
2019-02-20T18:44:00.763Z,5.30
2019-02-20T18:46:28.087Z,5.20
2019-02-20T18:48:55.334Z,5.10
2019-02-20T18:51:22.640Z,5.00
2019-02-20T18:53:49.861Z,5.00
2019-02-20T18:56:17.087Z,4.90
2019-02-20T18:58:44.414Z,4.90
2019-02-20T19:01:11.751Z,4.90
2019-02-20T19:03:39.407Z,4.90
2019-02-20T19:06:06.975Z,4.70
2019-02-20T19:08:45.158Z,4.70
2019-02-20T19:11:28.403Z,4.70
2019-02-20T19:14:01.198Z,4.80
2019-02-20T19:17:07.021Z,4.80
2019-02-20T19:19:55.654Z,4.80
2019-02-20T19:22:59.388Z,4.80
2019-02-20T19:26:10.242Z,4.80
2019-02-20T19:29:16.678Z,4.70
2019-02-20T19:32:31.882Z,4.60
2019-02-20T19:35:34.770Z,4.50
2019-02-20T19:38:19.753Z,4.30
2019-02-20T19:41:23.773Z,4.20
2019-02-20T19:44:23.322Z,4.10
2019-02-20T19:47:27.251Z,4.10
2019-02-20T19:50:38.377Z,4.00
2019-02-20T19:53:10.108Z,4.00
2019-02-20T19:56:01.827Z,4.00
2019-02-20T19:59:31.498Z,3.90
2019-02-20T20:02:28.114Z,3.90
2019-02-20T20:05:27.765Z,3.60
2019-02-20T20:08:17.776Z,3.40
2019-02-20T20:11:11.485Z,3.30
2019-02-20T20:14:02.270Z,3.30
2019-02-20T20:16:47.355Z,3.20
2019-02-20T20:19:38.244Z,3.30
2019-02-20T20:22:23.130Z,3.40
2019-02-20T20:25:09.632Z,3.40
2019-02-20T20:28:03.480Z,3.30
2019-02-20T20:31:08.305Z,3.30
2019-02-20T20:34:38.469Z,3.20
2019-02-20T20:37:33.711Z,3.00
2019-02-20T20:40:37.491Z,2.80
2019-02-20T20:43:37.675Z,2.60
2019-02-20T20:46:40.101Z,2.60
2019-02-20T20:49:33.768Z,2.70
2019-02-20T20:53:01.038Z,2.80
2019-02-20T20:55:54.378Z,2.70
2019-02-20T20:59:05.255Z,2.60
2019-02-20T21:01:52.158Z,2.40
2019-02-20T21:04:44.362Z,2.60
2019-02-20T21:07:42.368Z,2.60
2019-02-20T21:11:02.558Z,2.60
2019-02-20T21:14:10.508Z,2.60
2019-02-20T21:17:29.643Z,2.60
2019-02-20T21:20:41.500Z,2.50
2019-02-20T21:23:58.592Z,2.60
2019-02-20T21:26:50.241Z,2.60
2019-02-20T21:29:48.620Z,2.50
2019-02-20T21:32:59.436Z,2.50
2019-02-20T21:35:48.641Z,2.50
2019-02-20T21:38:37.281Z,2.50
2019-02-20T21:41:39.352Z,2.20
2019-02-20T21:44:52.724Z,2.10
2019-02-20T21:48:07.489Z,2.10
2019-02-20T21:50:58.940Z,2.20
2019-02-20T21:54:10.696Z,2.20
2019-02-20T21:57:28.859Z,2.20
2019-02-20T22:00:34.046Z,2.20
2019-02-20T22:03:55.569Z,2.20
2019-02-20T22:06:49.106Z,2.20
2019-02-20T22:09:41.953Z,2.00
2019-02-20T22:12:29.687Z,1.80
2019-02-20T22:15:40.784Z,1.80
2019-02-20T22:18:41.376Z,1.70
2019-02-20T22:21:53.840Z,1.80
2019-02-20T22:25:00.961Z,1.80
2019-02-20T22:27:53.758Z,1.90
2019-02-20T22:30:59.009Z,1.80
2019-02-20T22:33:37.011Z,1.80
2019-02-20T22:36:46.200Z,1.70
2019-02-20T22:40:01.099Z,1.60
2019-02-20T22:43:12.763Z,1.70
2019-02-20T22:46:05.445Z,1.70
2019-02-20T22:49:08.347Z,1.70
2019-02-20T22:51:59.815Z,1.70
2019-02-20T22:55:06.089Z,1.70
2019-02-20T22:58:05.008Z,1.60
2019-02-20T23:01:09.284Z,1.60
2019-02-20T23:04:22.840Z,1.70
2019-02-20T23:07:03.371Z,1.70
2019-02-20T23:10:20.207Z,1.60
2019-02-20T23:13:17.143Z,1.60
2019-02-20T23:15:44.663Z,1.50
2019-02-20T23:18:11.996Z,1.50
2019-02-20T23:20:39.595Z,1.50
2019-02-20T23:23:07.133Z,1.40
2019-02-20T23:25:34.693Z,1.40
2019-02-20T23:28:01.943Z,1.40
2019-02-20T23:30:29.174Z,1.40
2019-02-20T23:32:56.864Z,1.30
2019-02-20T23:35:24.083Z,1.10
2019-02-20T23:37:51.324Z,1.00
2019-02-20T23:40:18.547Z,1.10
2019-02-20T23:42:45.788Z,1.20
2019-02-20T23:45:12.919Z,1.20
2019-02-20T23:47:40.139Z,1.30
2019-02-20T23:50:07.823Z,1.20
2019-02-20T23:52:35.099Z,1.20
2019-02-20T23:55:02.448Z,1.20
2019-02-20T23:57:56.112Z,1.10
